Time;durP1;ratioP1;P1;durP2;ratioP2;P2;SDS_P1;SDS_P2;PMS_P1;PMS_P2;Temp;Humidity;BMP_temperature;BMP_pressure;BME280_temperature;BME280_humidity;BME280_pressure;Samples;Min_cycle;Max_cycle;Signal;HPM_P1;HPM_P2
2023/03/19 00:01:08;;;;;;;15.50;10.05;;;10.10;99.90;;;;;;5133671;27;20130;-64
2023/03/19 00:03:34;;;;;;;;;;;10.10;99.90;;;;;;5134211;27;20047;-67
2023/03/19 00:06:01;;;;;;;12.45;9.13;;;10.00;99.90;;;;;;5133090;27;19935;-64
2023/03/19 00:08:27;;;;;;;12.45;9.50;;;10.10;99.90;;;;;;5133573;27;20100;-64
2023/03/19 00:10:52;;;;;;;;;;;9.90;99.90;;;;;;5115549;27;20436;-64
2023/03/19 00:13:18;;;;;;;13.82;8.98;;;9.80;99.90;;;;;;5115281;27;19991;-64
2023/03/19 00:15:45;;;;;;;15.98;10.05;;;9.70;99.90;;;;;;5133646;27;20047;-64
2023/03/19 00:18:11;;;;;;;15.23;10.23;;;9.40;99.90;;;;;;5133422;27;20438;-64
2023/03/19 00:20:37;;;;;;;16.98;10.70;;;9.80;99.90;;;;;;5133296;27;20043;-63
2023/03/19 00:23:03;;;;;;;14.02;10.98;;;9.70;99.90;;;;;;5081210;27;20043;-64
2023/03/19 00:25:29;;;;;;;16.70;12.38;;;9.60;99.90;;;;;;5133261;27;20051;-64
2023/03/19 00:27:54;;;;;;;20.10;13.57;;;9.60;99.90;;;;;;5133383;27;20039;-64
2023/03/19 00:30:21;;;;;;;21.02;15.63;;;9.50;99.90;;;;;;5133278;27;20047;-64
2023/03/19 00:32:47;;;;;;;22.10;15.90;;;10.00;99.90;;;;;;5133039;27;20093;-64
2023/03/19 00:35:13;;;;;;;28.55;16.38;;;9.90;99.90;;;;;;5133282;27;20089;-64
2023/03/19 00:37:40;;;;;;;28.10;17.80;;;9.70;99.90;;;;;;5132655;27;20058;-63
2023/03/19 00:40:07;;;;;;;28.00;18.70;;;9.80;99.90;;;;;;5132906;27;20062;-64
2023/03/19 00:42:33;;;;;;;31.38;19.33;;;10.00;99.90;;;;;;5133042;27;20490;-64
2023/03/19 00:44:59;;;;;;;26.90;19.33;;;9.70;99.90;;;;;;5132762;27;20050;-63
2023/03/19 00:47:24;;;;;;;27.40;20.13;;;9.80;99.90;;;;;;5133302;27;20045;-63
2023/03/19 00:49:50;;;;;;;29.63;20.92;;;9.40;99.90;;;;;;5133380;27;20432;-63
2023/03/19 00:52:16;;;;;;;34.65;21.38;;;9.90;99.90;;;;;;5133267;27;20076;-63
2023/03/19 00:54:41;;;;;;;31.30;21.35;;;9.70;99.90;;;;;;5133164;27;20058;-64
2023/03/19 00:57:08;;;;;;;34.42;21.52;;;9.40;99.90;;;;;;5133100;27;20638;-63
2023/03/19 00:59:33;;;;;;;28.58;20.98;;;9.60;99.90;;;;;;5133079;27;20453;-64
2023/03/19 01:01:59;;;;;;;29.25;20.30;;;9.80;99.90;;;;;;5133173;27;20039;-63
2023/03/19 01:04:25;;;;;;;33.72;20.35;;;10.10;99.90;;;;;;5133012;27;20426;-63
2023/03/19 01:06:50;;;;;;;29.38;20.23;;;10.10;99.90;;;;;;5132981;27;20047;-64
2023/03/19 01:09:16;;;;;;;30.50;20.02;;;10.00;99.90;;;;;;5133053;27;20043;-63
2023/03/19 01:11:42;;;;;;;28.30;19.30;;;10.10;99.90;;;;;;5132901;27;20129;-64
2023/03/19 01:14:08;;;;;;;27.23;19.70;;;10.10;99.90;;;;;;5114914;28;20370;-65
2023/03/19 01:16:34;;;;;;;26.02;17.80;;;10.00;99.90;;;;;;5132950;27;20038;-64
2023/03/19 01:19:00;;;;;;;;;;;10.10;99.90;;;;;;5133246;27;20047;-63
2023/03/19 01:21:29;;;;;;;19.30;14.73;;;10.20;99.90;;;;;;5132547;27;20371;-63
2023/03/19 01:23:56;;;;;;;18.33;14.25;;;10.10;99.90;;;;;;5133036;28;20058;-63
2023/03/19 01:26:22;;;;;;;23.90;13.98;;;10.20;99.90;;;;;;5133193;28;20051;-63
2023/03/19 01:28:48;;;;;;;18.27;13.00;;;10.10;99.90;;;;;;5132893;28;20414;-66
2023/03/19 01:31:14;;;;;;;15.85;12.25;;;10.10;99.90;;;;;;5097523;28;20039;-63
2023/03/19 01:33:41;;;;;;;16.00;11.88;;;10.30;99.90;;;;;;5132759;28;20046;-64
2023/03/19 01:36:08;;;;;;;16.85;11.70;;;10.20;99.90;;;;;;5114359;28;20092;-63
2023/03/19 01:38:33;;;;;;;18.25;12.88;;;10.10;99.90;;;;;;5132660;28;20124;-64
2023/03/19 01:40:59;;;;;;;17.85;13.02;;;10.30;99.90;;;;;;5132655;28;20661;-64
2023/03/19 01:43:27;;;;;;;;;;;10.40;99.90;;;;;;5133148;28;20054;-63
2023/03/19 01:46:25;;;;;;;18.40;14.48;;;10.10;99.90;;;;;;5132605;28;19926;-63
2023/03/19 01:48:53;;;;;;;20.88;15.15;;;10.00;99.90;;;;;;5125145;28;20107;-63
2023/03/19 01:51:25;;;;;;;20.67;14.48;;;10.10;99.90;;;;;;5132528;28;20122;-64
2023/03/19 01:53:54;;;;;;;22.60;14.65;;;10.00;99.90;;;;;;5132707;28;20051;-64
2023/03/19 01:56:27;;;;;;;19.60;14.77;;;10.10;99.90;;;;;;5132589;28;20398;-63
2023/03/19 01:58:57;;;;;;;18.27;13.68;;;10.10;99.90;;;;;;5132503;28;20043;-63
2023/03/19 02:01:23;;;;;;;18.45;13.15;;;10.00;99.90;;;;;;5132463;28;20130;-63
2023/03/19 02:03:49;;;;;;;;;;;10.10;99.90;;;;;;5132879;28;20098;-64
2023/03/19 02:06:17;;;;;;;19.70;13.43;;;10.00;99.90;;;;;;5132495;28;19923;-65
2023/03/19 02:08:43;;;;;;;20.10;13.05;;;10.00;99.90;;;;;;5132408;28;20076;-63
2023/03/19 02:11:09;;;;;;;21.25;14.90;;;10.00;99.90;;;;;;5113903;28;20047;-65
2023/03/19 02:13:35;;;;;;;;;;;10.30;99.90;;;;;;5132764;28;20049;-64
2023/03/19 02:16:01;;;;;;;19.77;13.57;;;10.00;99.90;;;;;;5132381;28;19927;-64
2023/03/19 02:18:27;;;;;;;21.73;13.90;;;10.40;99.90;;;;;;5131969;28;20043;-63
2023/03/19 02:21:19;;;;;;;21.48;14.50;;;10.20;99.90;;;;;;5132374;28;20172;-63
2023/03/19 02:23:48;;;;;;;19.10;13.23;;;10.00;99.90;;;;;;5128514;28;20063;-64
2023/03/19 02:26:17;;;;;;;18.65;12.82;;;10.10;99.90;;;;;;5132230;28;20050;-65
2023/03/19 02:28:45;;;;;;;15.82;11.48;;;10.20;99.90;;;;;;5132286;27;20043;-64
2023/03/19 02:31:12;;;;;;;15.98;11.93;;;9.80;99.90;;;;;;5135570;27;20500;-63
2023/03/19 02:33:38;;;;;;;15.32;10.95;;;9.90;99.90;;;;;;5135971;27;20047;-64
2023/03/19 02:36:08;;;;;;;16.23;10.90;;;10.30;99.90;;;;;;5135859;27;20623;-64
2023/03/19 02:38:35;;;;;;;14.90;10.55;;;10.20;99.90;;;;;;5135597;27;20051;-63
2023/03/19 02:41:06;;;;;;;17.92;10.75;;;10.10;99.90;;;;;;5135673;27;20043;-63
2023/03/19 02:43:34;;;;;;;13.05;10.13;;;9.70;99.90;;;;;;5135730;27;20047;-64
2023/03/19 02:46:02;;;;;;;14.63;10.35;;;9.70;99.90;;;;;;5135617;27;20127;-64
2023/03/19 02:48:28;;;;;;;17.52;10.82;;;9.90;99.90;;;;;;5135552;27;20082;-65
2023/03/19 02:50:54;;;;;;;14.32;10.75;;;9.70;99.90;;;;;;5135567;27;20558;-64
2023/03/19 02:53:21;;;;;;;16.38;10.70;;;10.10;99.90;;;;;;5117349;27;20083;-64
2023/03/19 02:55:46;;;;;;;;;;;9.80;99.90;;;;;;5135951;27;20120;-63
2023/03/19 02:58:12;;;;;;;15.52;11.25;;;9.60;99.90;;;;;;5117089;27;19978;-63
2023/03/19 03:00:38;;;;;;;14.73;11.00;;;9.90;99.90;;;;;;5135102;27;20073;-63
2023/03/19 03:03:05;;;;;;;15.70;11.40;;;10.00;99.90;;;;;;5135274;27;20089;-67
2023/03/19 03:05:31;;;;;;;16.20;11.15;;;10.20;99.90;;;;;;5135291;27;20043;-64
2023/03/19 03:07:57;;;;;;;16.38;10.90;;;10.00;99.90;;;;;;5135262;27;20076;-63
2023/03/19 03:10:23;;;;;;;17.00;10.35;;;10.20;99.90;;;;;;5135172;27;20047;-63
2023/03/19 03:12:49;;;;;;;16.13;10.30;;;10.00;99.90;;;;;;5135116;27;20111;-63
2023/03/19 03:15:14;;;;;;;13.93;10.15;;;10.00;99.90;;;;;;5135176;27;20051;-66
2023/03/19 03:17:44;;;;;;;14.90;10.23;;;9.80;99.90;;;;;;5135100;27;20088;-64
2023/03/19 03:20:11;;;;;;;17.10;10.68;;;10.10;99.90;;;;;;5135374;27;20055;-68
2023/03/19 03:22:38;;;;;;;21.15;12.02;;;9.90;99.90;;;;;;5135102;27;20081;-63
2023/03/19 03:25:04;;;;;;;20.50;12.32;;;9.70;99.90;;;;;;5134886;27;20043;-63
2023/03/19 03:27:30;;;;;;;17.25;13.07;;;10.10;99.90;;;;;;5134934;27;20497;-64
2023/03/19 03:29:56;;;;;;;18.63;13.25;;;10.10;99.90;;;;;;5116670;27;20051;-64
2023/03/19 03:32:22;;;;;;;18.77;13.32;;;9.90;99.90;;;;;;5134812;27;20043;-63
2023/03/19 03:34:48;;;;;;;17.50;12.20;;;9.90;99.90;;;;;;5134764;27;20482;-64
2023/03/19 03:37:13;;;;;;;17.70;11.35;;;10.10;99.90;;;;;;5134466;27;20074;-63
2023/03/19 03:39:39;;;;;;;20.23;11.55;;;9.80;99.90;;;;;;5134754;27;20039;-63
2023/03/19 03:42:05;;;;;;;17.75;11.27;;;9.90;99.90;;;;;;5133455;27;20386;-64
2023/03/19 03:44:31;;;;;;;19.35;11.35;;;10.00;99.90;;;;;;5116187;27;20418;-65
2023/03/19 03:46:56;;;;;;;20.13;12.27;;;10.20;99.90;;;;;;5134409;27;20126;-64
2023/03/19 03:49:22;;;;;;;22.40;11.20;;;10.10;99.90;;;;;;5134817;27;20047;-65
2023/03/19 03:51:48;;;;;;;23.02;11.93;;;10.00;99.90;;;;;;5134394;27;20093;-65
2023/03/19 03:54:14;;;;;;;16.98;11.27;;;10.20;99.90;;;;;;5134431;27;20035;-64
2023/03/19 03:56:39;;;;;;;21.10;11.30;;;9.90;99.90;;;;;;5134328;27;20051;-65
2023/03/19 03:59:06;;;;;;;19.13;11.40;;;9.80;99.90;;;;;;5134230;27;20103;-65
2023/03/19 04:01:32;;;;;;;17.33;12.25;;;9.90;99.90;;;;;;5116014;27;20047;-67
2023/03/19 04:03:58;;;;;;;19.30;12.95;;;9.90;99.90;;;;;;5133968;27;20487;-64
2023/03/19 04:06:26;;;;;;;18.92;12.10;;;9.70;99.90;;;;;;5133787;27;20084;-65
2023/03/19 04:08:52;;;;;;;23.13;12.80;;;9.90;99.90;;;;;;5134110;27;20055;-65
2023/03/19 04:11:18;;;;;;;19.52;13.00;;;10.00;99.90;;;;;;5115632;27;20043;-69
2023/03/19 04:13:43;;;;;;;;;;;9.70;99.90;;;;;;5134472;27;20048;-65
2023/03/19 04:16:10;;;;;;;19.42;12.77;;;10.00;99.90;;;;;;5115665;27;19927;-64
2023/03/19 04:18:36;;;;;;;20.50;12.75;;;9.90;99.90;;;;;;5133882;27;20039;-64
2023/03/19 04:21:03;;;;;;;24.77;13.77;;;9.80;99.90;;;;;;5133790;27;20047;-64
2023/03/19 04:23:29;;;;;;;21.02;14.13;;;9.80;99.90;;;;;;5115550;27;20112;-63
2023/03/19 04:26:00;;;;;;;20.67;13.38;;;9.80;99.90;;;;;;5133595;27;20570;-64
2023/03/19 04:28:26;;;;;;;20.25;13.77;;;9.70;99.90;;;;;;5133696;27;20079;-64
2023/03/19 04:30:57;;;;;;;;;;;10.10;99.90;;;;;;5134140;27;20126;-64
2023/03/19 04:33:23;;;;;;;20.55;12.15;;;9.60;99.90;;;;;;5133896;27;19920;-64
2023/03/19 04:35:48;;;;;;;19.65;12.63;;;9.80;99.90;;;;;;5115652;27;20380;-64
2023/03/19 04:38:14;;;;;;;17.70;12.88;;;9.80;99.90;;;;;;5133738;27;20059;-65
2023/03/19 04:40:40;;;;;;;21.60;13.25;;;9.70;99.90;;;;;;5133397;27;20411;-65
2023/03/19 04:43:06;;;;;;;;;;;9.80;99.90;;;;;;5133869;27;20047;-64
2023/03/19 04:45:31;;;;;;;18.40;12.93;;;9.60;99.90;;;;;;5133440;27;19925;-64
2023/03/19 04:47:57;;;;;;;21.10;13.10;;;9.90;99.90;;;;;;5133325;27;20089;-63
2023/03/19 04:50:23;;;;;;;20.27;12.20;;;10.00;99.90;;;;;;5133375;27;20126;-63
2023/03/19 04:52:49;;;;;;;23.70;13.65;;;9.70;99.90;;;;;;5132639;27;20510;-63
2023/03/19 04:55:15;;;;;;;18.90;13.43;;;9.80;99.90;;;;;;5133267;27;20043;-64
2023/03/19 04:57:40;;;;;;;17.45;12.15;;;10.10;99.90;;;;;;5114799;27;20115;-64
2023/03/19 05:00:07;;;;;;;18.33;11.98;;;9.50;99.90;;;;;;5133483;27;20043;-63
2023/03/19 05:02:33;;;;;;;20.67;12.50;;;9.60;99.90;;;;;;5133160;27;20039;-63
2023/03/19 05:04:58;;;;;;;15.73;11.77;;;9.70;99.90;;;;;;5133109;27;20096;-63
2023/03/19 05:07:25;;;;;;;22.20;11.30;;;9.00;99.90;;;;;;5133064;27;20047;-63
2023/03/19 05:09:51;;;;;;;16.50;11.88;;;8.90;99.90;;;;;;5133083;27;20141;-65
2023/03/19 05:12:16;;;;;;;20.10;11.77;;;8.90;99.90;;;;;;5132909;27;20542;-64
2023/03/19 05:14:42;;;;;;;14.35;11.38;;;9.20;99.90;;;;;;5133087;27;20471;-63
2023/03/19 05:17:09;;;;;;;21.48;12.10;;;9.20;99.90;;;;;;5133192;27;20368;-63
2023/03/19 05:19:37;;;;;;;18.35;12.50;;;8.90;99.90;;;;;;5133233;27;20043;-63
2023/03/19 05:22:03;;;;;;;21.95;12.32;;;8.70;99.90;;;;;;5133263;27;20119;-63
2023/03/19 05:24:29;;;;;;;;;;;9.10;99.90;;;;;;5133298;27;20592;-63
2023/03/19 05:26:55;;;;;;;17.45;11.15;;;8.90;99.90;;;;;;5132880;28;20005;-63
2023/03/19 05:29:20;;;;;;;18.42;11.43;;;8.70;99.90;;;;;;5132841;28;20047;-63
2023/03/19 05:31:46;;;;;;;19.35;12.25;;;8.60;99.90;;;;;;5132883;28;20047;-64
2023/03/19 05:34:12;;;;;;;17.55;11.68;;;8.60;99.90;;;;;;5132810;28;20047;-64
2023/03/19 05:36:38;;;;;;;23.48;12.85;;;8.40;99.90;;;;;;5132477;28;20043;-63
2023/03/19 05:39:04;;;;;;;22.85;13.10;;;8.20;99.90;;;;;;5110530;28;20148;-63
2023/03/19 05:41:31;;;;;;;19.20;12.13;;;8.40;99.90;;;;;;5112180;28;20140;-63
2023/03/19 05:43:56;;;;;;;;;;;8.30;99.90;;;;;;5112634;28;20071;-65
2023/03/19 05:46:23;;;;;;;19.55;12.70;;;8.20;99.90;;;;;;5112124;28;20014;-63
2023/03/19 05:48:49;;;;;;;24.35;13.32;;;8.30;99.90;;;;;;5112256;28;20126;-63
2023/03/19 05:51:15;;;;;;;26.30;13.98;;;8.70;99.90;;;;;;5112055;28;20040;-63
2023/03/19 05:53:41;;;;;;;23.60;14.30;;;8.40;99.90;;;;;;5112178;28;20552;-63
2023/03/19 05:56:06;;;;;;;23.95;13.43;;;8.40;99.90;;;;;;5112098;28;20087;-67
2023/03/19 05:58:32;;;;;;;31.35;15.35;;;8.70;99.90;;;;;;5110983;28;20039;-63
2023/03/19 06:00:58;;;;;;;29.40;15.48;;;8.30;99.90;;;;;;5112050;28;20156;-63
2023/03/19 06:03:25;;;;;;;32.15;15.55;;;8.30;99.90;;;;;;5110708;28;20052;-64
2023/03/19 06:05:51;;;;;;;34.25;16.27;;;8.60;99.90;;;;;;5115593;28;20402;-63
2023/03/19 06:08:18;;;;;;;32.08;16.10;;;8.30;99.90;;;;;;5115868;28;20051;-63
2023/03/19 06:10:44;;;;;;;30.48;16.55;;;9.40;99.90;;;;;;5115623;28;20496;-65
2023/03/19 06:13:10;;;;;;;33.15;15.77;;;7.90;99.90;;;;;;5115785;28;20104;-64
2023/03/19 06:15:36;;;;;;;28.90;16.10;;;8.20;99.90;;;;;;5115804;28;20048;-64
2023/03/19 06:18:02;;;;;;;30.85;17.10;;;8.50;99.90;;;;;;5115659;28;20051;-65
2023/03/19 06:20:28;;;;;;;30.52;16.05;;;8.20;99.90;;;;;;5115670;28;20065;-64
2023/03/19 06:22:54;;;;;;;36.38;18.42;;;8.30;99.90;;;;;;5115641;28;20050;-64
2023/03/19 06:25:20;;;;;;;41.53;18.45;;;8.10;99.90;;;;;;5115644;28;20047;-63
2023/03/19 06:27:45;;;;;;;36.97;18.73;;;8.00;99.90;;;;;;5115594;28;20056;-63
2023/03/19 06:30:12;;;;;;;36.78;18.63;;;8.20;99.90;;;;;;5115503;28;20806;-63
2023/03/19 06:32:37;;;;;;;38.10;19.50;;;8.80;99.90;;;;;;5115404;28;20563;-63
2023/03/19 06:35:04;;;;;;;41.47;19.85;;;8.50;99.90;;;;;;5114228;28;20164;-63
2023/03/19 06:37:29;;;;;;;;;;;8.70;99.90;;;;;;5118860;27;20055;-63
2023/03/19 06:39:55;;;;;;;38.22;19.23;;;8.40;99.90;;;;;;5135953;27;19924;-63
2023/03/19 06:42:21;;;;;;;39.25;19.73;;;8.40;99.90;;;;;;5117432;27;20116;-66
2023/03/19 06:44:47;;;;;;;;;;;8.50;99.90;;;;;;5136185;27;20047;-66
2023/03/19 06:47:13;;;;;;;45.15;20.55;;;8.60;99.90;;;;;;5136048;27;20106;-63
2023/03/19 06:49:39;;;;;;;48.13;21.33;;;9.00;99.90;;;;;;5135720;27;20546;-63
2023/03/19 06:52:05;;;;;;;;;;;8.60;99.90;;;;;;5136021;27;20042;-63
2023/03/19 06:54:31;;;;;;;50.40;23.52;;;8.70;99.90;;;;;;5135580;27;20316;-63
2023/03/19 06:56:58;;;;;;;50.13;22.10;;;9.20;99.90;;;;;;5135608;27;20078;-63
2023/03/19 06:59:23;;;;;;;52.28;23.92;;;9.00;99.90;;;;;;5135487;27;20429;-63
2023/03/19 07:01:49;;;;;;;53.30;23.42;;;9.20;99.90;;;;;;5135468;27;20049;-63
2023/03/19 07:04:15;;;;;;;55.03;24.60;;;9.00;99.90;;;;;;5116966;27;20082;-63
2023/03/19 07:06:41;;;;;;;53.63;24.48;;;9.20;99.90;;;;;;5135480;27;20043;-64
2023/03/19 07:09:07;;;;;;;53.38;24.08;;;9.10;99.90;;;;;;5117049;27;20046;-63
2023/03/19 07:11:33;;;;;;;57.67;24.95;;;9.10;99.90;;;;;;5135335;27;20122;-65
2023/03/19 07:13:58;;;;;;;55.95;25.45;;;9.40;99.90;;;;;;5135544;27;20043;-63
2023/03/19 07:16:24;;;;;;;58.67;24.45;;;9.20;99.90;;;;;;5114494;27;20084;-63
2023/03/19 07:18:50;;;;;;;55.42;25.55;;;9.30;99.90;;;;;;5153477;27;20139;-64
2023/03/19 07:21:15;;;;;;;58.65;26.52;;;9.10;99.90;;;;;;5154983;27;20102;-63
2023/03/19 07:23:41;;;;;;;62.70;27.80;;;9.70;99.90;;;;;;5155019;27;20038;-63
2023/03/19 07:26:07;;;;;;;57.28;27.00;;;8.80;99.90;;;;;;5154909;27;20038;-65
2023/03/19 07:28:33;;;;;;;60.03;26.75;;;9.40;99.90;;;;;;5155329;27;20053;-66
2023/03/19 07:30:59;;;;;;;;;;;9.70;99.90;;;;;;5136660;27;20053;-64
2023/03/19 07:33:24;;;;;;;57.22;26.15;;;9.50;99.90;;;;;;5154923;27;19919;-64
2023/03/19 07:35:50;;;;;;;61.25;26.45;;;9.50;99.90;;;;;;5155257;27;20043;-63
2023/03/19 07:38:16;;;;;;;51.97;25.13;;;9.50;99.90;;;;;;5154748;27;20058;-66
2023/03/19 07:40:42;;;;;;;52.20;23.88;;;9.50;99.90;;;;;;5155131;27;20055;-64
2023/03/19 07:43:07;;;;;;;52.40;25.60;;;9.60;99.90;;;;;;5155263;27;20069;-64
2023/03/19 07:45:33;;;;;;;55.67;26.38;;;9.50;99.90;;;;;;5154168;27;20061;-66
2023/03/19 07:48:02;;;;;;;53.55;26.05;;;9.60;99.90;;;;;;5136745;27;20061;-64
2023/03/19 07:50:31;;;;;;;59.15;26.90;;;9.90;99.90;;;;;;5155023;27;20150;-63
2023/03/19 07:52:57;;;;;;;57.28;26.80;;;10.00;99.90;;;;;;5135894;27;20039;-64
2023/03/19 07:55:23;;;;;;;55.45;27.42;;;10.00;99.90;;;;;;5154923;27;20147;-67
2023/03/19 07:57:49;;;;;;;;;;;10.10;99.90;;;;;;5155346;27;20047;-63
2023/03/19 08:00:15;;;;;;;61.35;28.05;;;10.20;99.90;;;;;;5154354;27;19946;-63
2023/03/19 08:02:41;;;;;;;57.35;27.27;;;10.30;99.90;;;;;;5154249;27;20035;-63
2023/03/19 08:05:08;;;;;;;58.88;26.98;;;10.40;99.90;;;;;;5154726;27;20043;-63
2023/03/19 08:07:34;;;;;;;52.08;26.52;;;10.40;99.90;;;;;;5154424;27;20050;-64
2023/03/19 08:10:01;;;;;;;50.03;26.33;;;10.30;99.90;;;;;;5154419;27;20047;-64
2023/03/19 08:12:26;;;;;;;;;;;10.60;99.90;;;;;;5136730;27;20043;-63
2023/03/19 08:14:52;;;;;;;51.65;27.23;;;10.10;99.90;;;;;;5144880;27;19929;-63
2023/03/19 08:17:18;;;;;;;52.03;28.13;;;10.10;99.90;;;;;;5153212;27;20054;-63
2023/03/19 08:19:44;;;;;;;60.67;34.03;;;10.00;99.90;;;;;;5153597;27;20502;-63
2023/03/19 08:22:10;;;;;;;57.03;33.67;;;10.00;99.90;;;;;;5153003;27;20047;-63
2023/03/19 08:24:36;;;;;;;53.05;29.92;;;10.30;99.90;;;;;;5153298;27;20045;-63
2023/03/19 08:27:01;;;;;;;48.92;32.03;;;10.00;99.90;;;;;;5153160;27;20051;-64
2023/03/19 08:29:27;;;;;;;55.03;32.30;;;10.10;99.90;;;;;;5153848;27;20145;-63
2023/03/19 08:31:54;;;;;;;60.22;33.17;;;10.10;99.90;;;;;;5153029;27;20049;-61
2023/03/19 08:34:21;;;;;;;60.05;34.00;;;10.40;99.90;;;;;;5135271;27;20517;-63
2023/03/19 08:36:47;;;;;;;56.83;32.72;;;10.30;99.90;;;;;;5153725;27;20058;-63
2023/03/19 08:39:13;;;;;;;57.58;32.15;;;10.00;99.90;;;;;;5153289;27;20060;-63
2023/03/19 08:41:38;;;;;;;62.95;34.35;;;10.30;99.90;;;;;;5135043;27;20050;-66
2023/03/19 08:44:04;;;;;;;53.50;30.55;;;10.10;99.90;;;;;;5153345;27;20058;-62
2023/03/19 08:46:30;;;;;;;60.15;32.15;;;10.40;99.90;;;;;;5152521;27;20050;-63
2023/03/19 08:48:56;;;;;;;60.97;32.88;;;10.20;99.90;;;;;;5134601;27;20057;-62
2023/03/19 08:51:24;;;;;;;67.57;33.58;;;10.30;99.90;;;;;;5137365;27;20051;-63
2023/03/19 08:53:50;;;;;;;68.28;33.75;;;10.00;99.90;;;;;;5137355;27;20050;-64
2023/03/19 08:56:15;;;;;;;59.03;32.10;;;10.10;99.90;;;;;;5152227;27;20455;-62
2023/03/19 08:58:41;;;;;;;55.80;30.98;;;10.00;99.90;;;;;;5151533;27;20191;-61
2023/03/19 09:01:13;;;;;;;57.45;31.20;;;10.20;99.90;;;;;;5127019;27;20043;-63
2023/03/19 09:03:40;;;;;;;54.55;29.52;;;10.10;99.90;;;;;;5140960;27;20101;-66
2023/03/19 09:06:08;;;;;;;55.22;28.80;;;10.00;99.90;;;;;;5131882;27;20042;-64
2023/03/19 09:08:35;;;;;;;54.33;30.17;;;10.40;99.90;;;;;;5132100;27;20058;-66
2023/03/19 09:11:01;;;;;;;53.00;29.20;;;10.40;99.90;;;;;;5114487;27;20047;-63
2023/03/19 09:13:26;;;;;;;53.53;26.85;;;10.20;99.90;;;;;;5132372;27;20049;-63
2023/03/19 09:15:52;;;;;;;48.58;25.90;;;10.50;99.90;;;;;;5131789;27;20082;-63
2023/03/19 09:18:25;;;;;;;47.58;24.63;;;10.50;99.90;;;;;;5132670;27;20084;-63
2023/03/19 09:20:54;;;;;;;47.45;24.67;;;10.60;99.90;;;;;;5132354;27;20503;-63
2023/03/19 09:23:20;;;;;;;49.67;25.67;;;10.40;99.90;;;;;;5131892;27;20054;-64
2023/03/19 09:25:46;;;;;;;50.10;26.13;;;10.40;99.90;;;;;;5132408;27;20087;-62
2023/03/19 09:28:12;;;;;;;54.83;26.27;;;10.00;99.90;;;;;;5132887;28;20043;-62
2023/03/19 09:30:38;;;;;;;55.58;26.73;;;10.30;99.90;;;;;;5113301;28;20083;-63
2023/03/19 09:33:04;;;;;;;51.15;26.45;;;10.20;99.90;;;;;;5132109;28;20592;-64
2023/03/19 09:35:31;;;;;;;;;;;10.10;99.90;;;;;;5133014;28;20058;-63
2023/03/19 09:37:58;;;;;;;55.85;26.98;;;10.00;99.90;;;;;;5131530;27;19919;-63
2023/03/19 09:40:27;;;;;;;54.72;27.27;;;10.30;99.90;;;;;;5116586;27;20082;-62
2023/03/19 09:43:27;;;;;;;62.22;29.45;;;9.90;99.90;;;;;;5136985;27;20043;-64
2023/03/19 09:45:53;;;;;;;59.90;28.85;;;10.30;99.90;;;;;;5156260;27;20046;-64
2023/03/19 09:48:24;;;;;;;;;;;10.20;99.90;;;;;;5157518;27;20498;-63
2023/03/19 09:50:50;;;;;;;62.25;30.50;;;10.30;99.90;;;;;;5156059;27;20298;-66
2023/03/19 09:53:37;;;;;;;66.80;31.92;;;10.20;99.90;;;;;;5153167;27;20047;-66
2023/03/19 09:56:06;;;;;;;63.33;30.65;;;10.00;99.90;;;;;;5155179;27;20042;-64
2023/03/19 09:58:34;;;;;;;64.30;31.10;;;10.10;99.90;;;;;;5136247;27;20050;-67
2023/03/19 10:01:01;;;;;;;67.30;31.02;;;9.90;99.90;;;;;;5154466;27;20061;-64
2023/03/19 10:03:30;;;;;;;73.20;33.55;;;10.30;99.90;;;;;;5136197;27;20049;-64
2023/03/19 10:06:05;;;;;;;69.57;28.83;;;10.40;99.90;;;;;;5155146;27;20047;-68
2023/03/19 10:08:50;;;;;;;75.15;30.92;;;10.00;99.90;;;;;;5138321;27;20402;-63
2023/03/19 10:11:49;;;;;;;71.28;30.80;;;9.90;99.90;;;;;;5156781;27;20073;-63
2023/03/19 10:14:36;;;;;;;77.75;32.22;;;10.20;99.90;;;;;;5156086;27;20495;-64
2023/03/19 10:17:06;;;;;;;84.97;34.05;;;9.90;99.90;;;;;;5156657;27;20042;-63
2023/03/19 10:20:09;;;;;;;85.93;33.58;;;9.70;99.90;;;;;;5156659;27;20038;-63
2023/03/19 10:22:46;;;;;;;73.05;29.15;;;10.10;99.90;;;;;;5152638;27;20074;-64
2023/03/19 10:25:18;;;;;;;62.67;26.30;;;10.00;99.90;;;;;;5156030;27;20097;-63
2023/03/19 10:27:47;;;;;;;78.72;31.10;;;9.60;99.90;;;;;;5156428;27;20061;-63
2023/03/19 10:30:18;;;;;;;76.57;31.40;;;9.30;99.90;;;;;;5137224;27;20130;-63
2023/03/19 10:32:51;;;;;;;76.72;31.02;;;9.50;99.90;;;;;;5155896;27;20050;-63
2023/03/19 10:35:18;;;;;;;78.30;31.00;;;9.70;99.90;;;;;;5156467;27;20448;-63
2023/03/19 10:37:44;;;;;;;64.60;27.42;;;9.40;99.90;;;;;;5137120;27;20059;-63
2023/03/19 10:40:35;;;;;;;62.80;26.92;;;9.60;99.90;;;;;;5156449;27;20058;-63
2023/03/19 10:43:19;;;;;;;65.13;25.90;;;10.00;99.90;;;;;;5155441;27;20095;-63
2023/03/19 10:45:45;;;;;;;60.95;27.45;;;9.80;99.90;;;;;;5155961;27;20090;-64
2023/03/19 10:48:15;;;;;;;58.67;24.60;;;10.00;99.90;;;;;;5156212;27;20105;-64
2023/03/19 10:51:00;;;;;;;50.67;23.02;;;9.90;99.90;;;;;;5119128;27;20047;-64
2023/03/19 10:53:35;;;;;;;50.35;23.35;;;9.80;99.90;;;;;;5155938;27;20040;-64
2023/03/19 10:56:06;;;;;;;37.97;17.90;;;10.10;99.90;;;;;;5156136;27;20082;-64
2023/03/19 10:58:34;;;;;;;35.13;15.70;;;9.80;99.90;;;;;;5155625;27;20129;-64
2023/03/19 11:01:07;;;;;;;35.17;16.13;;;10.10;99.90;;;;;;5155682;27;20134;-63
2023/03/19 11:03:32;;;;;;;33.85;16.15;;;9.70;99.90;;;;;;5156499;27;20035;-63
2023/03/19 11:06:26;;;;;;;32.53;16.20;;;10.00;99.90;;;;;;5155447;27;20111;-64
2023/03/19 11:09:20;;;;;;;38.90;18.00;;;10.10;99.90;;;;;;5152219;27;20061;-63
2023/03/19 11:11:48;;;;;;;44.20;20.02;;;10.20;99.90;;;;;;5136363;27;20046;-65
2023/03/19 11:14:23;;;;;;;41.35;19.63;;;10.40;99.90;;;;;;5155063;27;20043;-67
2023/03/19 11:16:56;;;;;;;41.63;17.92;;;9.90;99.90;;;;;;5155397;27;20049;-63
2023/03/19 11:19:31;;;;;;;45.50;19.80;;;10.00;99.90;;;;;;5137143;27;20501;-64
2023/03/19 11:22:16;;;;;;;41.25;19.13;;;10.20;99.90;;;;;;5136644;27;20121;-65
2023/03/19 11:24:54;;;;;;;45.35;20.35;;;10.40;99.90;;;;;;5137285;27;20046;-63
2023/03/19 11:27:34;;;;;;;43.65;20.88;;;10.10;99.90;;;;;;5155277;27;20047;-67
2023/03/19 11:30:06;;;;;;;42.22;21.02;;;10.20;99.90;;;;;;5155134;27;20046;-63
2023/03/19 11:32:47;;;;;;;56.33;23.00;;;10.30;99.90;;;;;;5155042;27;20043;-66
2023/03/19 11:35:31;;;;;;;53.08;22.08;;;10.50;99.90;;;;;;5154561;27;20085;-64
2023/03/19 11:38:00;;;;;;;51.28;22.42;;;10.20;99.90;;;;;;5154481;27;20834;-63
2023/03/19 11:40:58;;;;;;;47.08;22.05;;;9.90;99.90;;;;;;5155358;27;20107;-64
2023/03/19 11:43:49;;;;;;;47.33;21.33;;;10.10;99.90;;;;;;5114501;27;20065;-63
2023/03/19 11:46:33;;;;;;;49.00;22.80;;;10.10;99.90;;;;;;5154852;27;20121;-63
2023/03/19 11:49:21;;;;;;;50.58;21.92;;;10.20;99.90;;;;;;5154924;27;20046;-63
2023/03/19 11:52:04;;;;;;;51.28;21.25;;;10.30;99.90;;;;;;5154466;27;20039;-63
2023/03/19 11:54:51;;;;;;;48.63;20.95;;;10.10;99.90;;;;;;5155472;27;20162;-63
2023/03/19 11:57:22;;;;;;;;;;;9.80;99.90;;;;;;5136359;27;20047;-63
2023/03/19 12:00:22;;;;;;;52.58;22.70;;;10.10;99.90;;;;;;5154229;27;19966;-63
2023/03/19 12:03:12;;;;;;;54.35;22.40;;;10.30;99.90;;;;;;5131051;27;20094;-63
2023/03/19 12:06:04;;;;;;;49.03;22.13;;;10.20;99.90;;;;;;5154332;27;20038;-63
2023/03/19 12:08:43;;;;;;;51.92;22.45;;;10.20;99.90;;;;;;5154507;27;20050;-63
2023/03/19 12:11:23;;;;;;;56.83;22.10;;;10.30;99.90;;;;;;5154720;27;20084;-65
2023/03/19 12:14:17;;;;;;;61.47;24.15;;;9.70;99.90;;;;;;5153891;27;20098;-64
2023/03/19 12:17:05;;;;;;;55.65;24.08;;;9.90;99.90;;;;;;5154510;27;20085;-63
2023/03/19 12:19:44;;;;;;;51.45;21.33;;;10.10;99.90;;;;;;5154278;27;20110;-64
2023/03/19 12:22:29;;;;;;;57.75;22.70;;;10.00;99.90;;;;;;5154485;27;20053;-64
2023/03/19 12:25:21;;;;;;;48.55;21.98;;;10.00;99.90;;;;;;5154284;27;20046;-63
2023/03/19 12:27:53;;;;;;;42.63;20.52;;;9.90;99.90;;;;;;5153495;27;20038;-63
2023/03/19 12:30:32;;;;;;;44.50;20.67;;;9.70;99.90;;;;;;5153992;27;20126;-63
2023/03/19 12:33:12;;;;;;;43.55;20.25;;;9.70;99.90;;;;;;5135745;27;20039;-63
2023/03/19 12:35:40;;;;;;;43.08;21.17;;;9.90;99.90;;;;;;5153630;27;20053;-63
2023/03/19 12:38:22;;;;;;;36.08;21.52;;;9.50;99.90;;;;;;5153947;27;20066;-64
2023/03/19 12:40:58;;;;;;;37.42;20.40;;;9.80;99.90;;;;;;5135313;27;20449;-63
2023/03/19 12:43:35;;;;;;;40.30;20.20;;;9.90;99.90;;;;;;5153632;27;20043;-63
2023/03/19 12:46:27;;;;;;;39.65;20.00;;;10.00;99.90;;;;;;5153839;27;20050;-63
2023/03/19 12:49:03;;;;;;;38.72;19.40;;;11.20;99.90;;;;;;5113690;27;20447;-63